sensor_id;sensor_type;location;lat;lon;timestamp;temperature;humidity
5059;DHT22;2548;52.050;11.036;2023-05-07T00:02:08;10.20;99.90
5059;DHT22;2548;52.050;11.036;2023-05-07T00:04:35;10.10;99.90
5059;DHT22;2548;52.050;11.036;2023-05-07T00:07:05;10.20;99.90
5059;DHT22;2548;52.050;11.036;2023-05-07T00:09:32;10.20;99.90
5059;DHT22;2548;52.050;11.036;2023-05-07T00:11:59;10.20;99.90
5059;DHT22;2548;52.050;11.036;2023-05-07T00:14:27;10.20;99.90
5059;DHT22;2548;52.050;11.036;2023-05-07T00:16:56;10.10;99.90
5059;DHT22;2548;52.050;11.036;2023-05-07T00:19:23;10.10;99.90
5059;DHT22;2548;52.050;11.036;2023-05-07T00:21:51;10.10;99.90
5059;DHT22;2548;52.050;11.036;2023-05-07T00:24:19;10.10;99.90
5059;DHT22;2548;52.050;11.036;2023-05-07T00:26:47;10.10;99.90
5059;DHT22;2548;52.050;11.036;2023-05-07T00:29:14;10.10;99.90
5059;DHT22;2548;52.050;11.036;2023-05-07T00:31:42;10.10;99.90
5059;DHT22;2548;52.050;11.036;2023-05-07T00:34:10;10.10;99.90
5059;DHT22;2548;52.050;11.036;2023-05-07T00:36:38;10.00;99.90
5059;DHT22;2548;52.050;11.036;2023-05-07T00:39:05;10.00;99.90
5059;DHT22;2548;52.050;11.036;2023-05-07T00:41:33;10.00;99.90
5059;DHT22;2548;52.050;11.036;2023-05-07T00:44:00;9.90;99.90
5059;DHT22;2548;52.050;11.036;2023-05-07T00:46:29;9.90;99.90
5059;DHT22;2548;52.050;11.036;2023-05-07T00:48:58;9.90;99.90
5059;DHT22;2548;52.050;11.036;2023-05-07T00:51:28;9.90;99.90
5059;DHT22;2548;52.050;11.036;2023-05-07T00:53:56;9.90;99.90
5059;DHT22;2548;52.050;11.036;2023-05-07T00:56:23;9.90;99.90
5059;DHT22;2548;52.050;11.036;2023-05-07T00:58:51;9.80;99.90
5059;DHT22;2548;52.050;11.036;2023-05-07T01:01:19;9.90;99.90
5059;DHT22;2548;52.050;11.036;2023-05-07T01:03:47;9.80;99.90
5059;DHT22;2548;52.050;11.036;2023-05-07T01:06:15;9.80;99.90
5059;DHT22;2548;52.050;11.036;2023-05-07T01:08:45;9.90;99.90
5059;DHT22;2548;52.050;11.036;2023-05-07T01:11:14;9.90;99.90
5059;DHT22;2548;52.050;11.036;2023-05-07T01:13:41;9.80;99.90
5059;DHT22;2548;52.050;11.036;2023-05-07T01:16:10;9.80;99.90
5059;DHT22;2548;52.050;11.036;2023-05-07T01:18:37;9.80;99.90
5059;DHT22;2548;52.050;11.036;2023-05-07T01:21:05;9.80;99.90
5059;DHT22;2548;52.050;11.036;2023-05-07T01:23:35;9.70;99.90
5059;DHT22;2548;52.050;11.036;2023-05-07T01:26:03;9.70;99.90
5059;DHT22;2548;52.050;11.036;2023-05-07T01:28:32;9.70;99.90
5059;DHT22;2548;52.050;11.036;2023-05-07T01:31:02;9.70;99.90
5059;DHT22;2548;52.050;11.036;2023-05-07T01:33:34;9.70;99.90
5059;DHT22;2548;52.050;11.036;2023-05-07T01:36:03;9.60;99.90
5059;DHT22;2548;52.050;11.036;2023-05-07T01:38:32;9.60;99.90
5059;DHT22;2548;52.050;11.036;2023-05-07T01:41:02;9.60;99.90
5059;DHT22;2548;52.050;11.036;2023-05-07T01:43:30;9.50;99.90
5059;DHT22;2548;52.050;11.036;2023-05-07T01:45:58;9.50;99.90
5059;DHT22;2548;52.050;11.036;2023-05-07T01:48:27;9.60;99.90
5059;DHT22;2548;52.050;11.036;2023-05-07T01:50:55;9.50;99.90
5059;DHT22;2548;52.050;11.036;2023-05-07T01:53:23;9.60;99.90
5059;DHT22;2548;52.050;11.036;2023-05-07T01:55:50;9.60;99.90
5059;DHT22;2548;52.050;11.036;2023-05-07T01:58:21;9.60;99.90
5059;DHT22;2548;52.050;11.036;2023-05-07T02:00:48;9.60;99.90
5059;DHT22;2548;52.050;11.036;2023-05-07T02:03:16;9.70;99.90
5059;DHT22;2548;52.050;11.036;2023-05-07T02:05:57;9.70;99.90
5059;DHT22;2548;52.050;11.036;2023-05-07T02:08:32;9.70;99.90
5059;DHT22;2548;52.050;11.036;2023-05-07T02:10:59;9.70;99.90
5059;DHT22;2548;52.050;11.036;2023-05-07T02:13:32;9.70;99.90
5059;DHT22;2548;52.050;11.036;2023-05-07T02:16:01;9.60;99.90
5059;DHT22;2548;52.050;11.036;2023-05-07T02:18:28;9.60;99.90
5059;DHT22;2548;52.050;11.036;2023-05-07T02:20:56;9.60;99.90
5059;DHT22;2548;52.050;11.036;2023-05-07T02:23:23;9.60;99.90
5059;DHT22;2548;52.050;11.036;2023-05-07T02:25:51;9.60;99.90
5059;DHT22;2548;52.050;11.036;2023-05-07T02:28:18;9.50;99.90
5059;DHT22;2548;52.050;11.036;2023-05-07T02:30:58;9.50;99.90
5059;DHT22;2548;52.050;11.036;2023-05-07T02:33:27;9.50;99.90
5059;DHT22;2548;52.050;11.036;2023-05-07T02:35:54;9.50;99.90
5059;DHT22;2548;52.050;11.036;2023-05-07T02:38:22;9.50;99.90
5059;DHT22;2548;52.050;11.036;2023-05-07T02:40:49;9.50;99.90
5059;DHT22;2548;52.050;11.036;2023-05-07T02:43:17;9.50;99.90
5059;DHT22;2548;52.050;11.036;2023-05-07T02:45:47;9.50;99.90
5059;DHT22;2548;52.050;11.036;2023-05-07T02:48:17;9.50;99.90
5059;DHT22;2548;52.050;11.036;2023-05-07T02:50:44;9.50;99.90
5059;DHT22;2548;52.050;11.036;2023-05-07T02:53:13;9.50;99.90
5059;DHT22;2548;52.050;11.036;2023-05-07T02:55:41;9.40;99.90
5059;DHT22;2548;52.050;11.036;2023-05-07T02:58:08;9.40;99.90
5059;DHT22;2548;52.050;11.036;2023-05-07T03:00:37;9.30;99.90
5059;DHT22;2548;52.050;11.036;2023-05-07T03:03:23;9.30;99.90
5059;DHT22;2548;52.050;11.036;2023-05-07T03:05:50;9.30;99.90
5059;DHT22;2548;52.050;11.036;2023-05-07T03:08:18;9.30;99.90
5059;DHT22;2548;52.050;11.036;2023-05-07T03:10:45;9.30;99.90
5059;DHT22;2548;52.050;11.036;2023-05-07T03:13:13;9.30;99.90
5059;DHT22;2548;52.050;11.036;2023-05-07T03:15:41;9.20;99.90
5059;DHT22;2548;52.050;11.036;2023-05-07T03:18:08;9.30;99.90
5059;DHT22;2548;52.050;11.036;2023-05-07T03:20:37;9.30;99.90
5059;DHT22;2548;52.050;11.036;2023-05-07T03:23:06;9.20;99.90
5059;DHT22;2548;52.050;11.036;2023-05-07T03:25:33;9.10;99.90
5059;DHT22;2548;52.050;11.036;2023-05-07T03:28:01;9.20;99.90
5059;DHT22;2548;52.050;11.036;2023-05-07T03:30:37;9.20;99.90
5059;DHT22;2548;52.050;11.036;2023-05-07T03:33:05;9.20;99.90
5059;DHT22;2548;52.050;11.036;2023-05-07T03:35:32;9.20;99.90
5059;DHT22;2548;52.050;11.036;2023-05-07T03:38:01;9.10;99.90
5059;DHT22;2548;52.050;11.036;2023-05-07T03:40:32;9.10;99.90
5059;DHT22;2548;52.050;11.036;2023-05-07T03:43:01;9.20;99.90
5059;DHT22;2548;52.050;11.036;2023-05-07T03:45:31;9.10;99.90
5059;DHT22;2548;52.050;11.036;2023-05-07T03:48:07;9.20;99.90
5059;DHT22;2548;52.050;11.036;2023-05-07T03:50:35;9.20;99.90
5059;DHT22;2548;52.050;11.036;2023-05-07T03:53:03;9.20;99.90
5059;DHT22;2548;52.050;11.036;2023-05-07T03:55:34;9.20;99.90
5059;DHT22;2548;52.050;11.036;2023-05-07T03:58:02;9.20;99.90
5059;DHT22;2548;52.050;11.036;2023-05-07T04:00:29;9.20;99.90
5059;DHT22;2548;52.050;11.036;2023-05-07T04:02:59;9.20;99.90
5059;DHT22;2548;52.050;11.036;2023-05-07T04:05:30;9.10;99.90
5059;DHT22;2548;52.050;11.036;2023-05-07T04:08:02;9.20;99.90
5059;DHT22;2548;52.050;11.036;2023-05-07T04:10:37;9.10;99.90
5059;DHT22;2548;52.050;11.036;2023-05-07T04:13:08;9.10;99.90
5059;DHT22;2548;52.050;11.036;2023-05-07T04:15:36;9.10;99.90
5059;DHT22;2548;52.050;11.036;2023-05-07T04:18:07;9.20;99.90
5059;DHT22;2548;52.050;11.036;2023-05-07T04:20:36;9.20;99.90
5059;DHT22;2548;52.050;11.036;2023-05-07T04:23:06;9.20;99.90
5059;DHT22;2548;52.050;11.036;2023-05-07T04:25:34;9.20;99.90
5059;DHT22;2548;52.050;11.036;2023-05-07T04:28:09;9.20;99.90
5059;DHT22;2548;52.050;11.036;2023-05-07T04:30:38;9.20;99.90
5059;DHT22;2548;52.050;11.036;2023-05-07T04:33:07;9.20;99.90
5059;DHT22;2548;52.050;11.036;2023-05-07T04:35:35;9.30;99.90
5059;DHT22;2548;52.050;11.036;2023-05-07T04:38:05;9.30;99.90
5059;DHT22;2548;52.050;11.036;2023-05-07T04:40:35;9.30;99.90
5059;DHT22;2548;52.050;11.036;2023-05-07T04:43:03;9.40;99.90
5059;DHT22;2548;52.050;11.036;2023-05-07T04:45:36;9.30;99.90
5059;DHT22;2548;52.050;11.036;2023-05-07T04:48:06;9.40;99.90
5059;DHT22;2548;52.050;11.036;2023-05-07T04:50:34;9.40;99.90
5059;DHT22;2548;52.050;11.036;2023-05-07T04:53:03;9.30;99.90
5059;DHT22;2548;52.050;11.036;2023-05-07T04:55:32;9.30;99.90
5059;DHT22;2548;52.050;11.036;2023-05-07T04:58:00;9.30;99.90
5059;DHT22;2548;52.050;11.036;2023-05-07T05:00:29;9.30;99.90
5059;DHT22;2548;52.050;11.036;2023-05-07T05:02:58;9.30;99.90
5059;DHT22;2548;52.050;11.036;2023-05-07T05:05:25;9.30;99.90
5059;DHT22;2548;52.050;11.036;2023-05-07T05:07:54;9.30;99.90
5059;DHT22;2548;52.050;11.036;2023-05-07T05:10:22;9.40;99.90
5059;DHT22;2548;52.050;11.036;2023-05-07T05:12:51;9.50;99.90
5059;DHT22;2548;52.050;11.036;2023-05-07T05:15:20;9.50;99.90
5059;DHT22;2548;52.050;11.036;2023-05-07T05:17:48;9.50;99.90
5059;DHT22;2548;52.050;11.036;2023-05-07T05:20:16;9.50;99.90
5059;DHT22;2548;52.050;11.036;2023-05-07T05:22:43;9.50;99.90
5059;DHT22;2548;52.050;11.036;2023-05-07T05:25:13;9.60;99.90
5059;DHT22;2548;52.050;11.036;2023-05-07T05:27:40;9.60;99.90
5059;DHT22;2548;52.050;11.036;2023-05-07T05:30:11;9.60;99.90
5059;DHT22;2548;52.050;11.036;2023-05-07T05:32:39;9.60;99.90
5059;DHT22;2548;52.050;11.036;2023-05-07T05:35:07;9.60;99.90
5059;DHT22;2548;52.050;11.036;2023-05-07T05:37:36;9.70;99.90
5059;DHT22;2548;52.050;11.036;2023-05-07T05:40:06;9.70;99.90
5059;DHT22;2548;52.050;11.036;2023-05-07T05:42:34;9.80;99.90
5059;DHT22;2548;52.050;11.036;2023-05-07T05:45:03;9.90;99.90
5059;DHT22;2548;52.050;11.036;2023-05-07T05:47:33;9.90;99.90
5059;DHT22;2548;52.050;11.036;2023-05-07T05:50:01;10.00;99.90
5059;DHT22;2548;52.050;11.036;2023-05-07T05:52:29;10.00;99.90
5059;DHT22;2548;52.050;11.036;2023-05-07T05:54:57;10.00;99.90
5059;DHT22;2548;52.050;11.036;2023-05-07T05:57:25;10.10;99.90
5059;DHT22;2548;52.050;11.036;2023-05-07T05:59:53;10.10;99.90
5059;DHT22;2548;52.050;11.036;2023-05-07T06:02:21;10.10;99.90
5059;DHT22;2548;52.050;11.036;2023-05-07T06:04:50;10.10;99.90
5059;DHT22;2548;52.050;11.036;2023-05-07T06:07:20;10.10;99.90
5059;DHT22;2548;52.050;11.036;2023-05-07T06:09:47;10.10;99.90
5059;DHT22;2548;52.050;11.036;2023-05-07T06:12:15;10.10;99.90
5059;DHT22;2548;52.050;11.036;2023-05-07T06:14:43;10.10;99.90
5059;DHT22;2548;52.050;11.036;2023-05-07T06:17:11;10.10;99.90
5059;DHT22;2548;52.050;11.036;2023-05-07T06:19:39;10.20;99.90
5059;DHT22;2548;52.050;11.036;2023-05-07T06:22:08;10.20;99.90
5059;DHT22;2548;52.050;11.036;2023-05-07T06:24:36;10.10;99.90
5059;DHT22;2548;52.050;11.036;2023-05-07T06:27:05;10.10;99.90
5059;DHT22;2548;52.050;11.036;2023-05-07T06:29:33;10.10;99.90
5059;DHT22;2548;52.050;11.036;2023-05-07T06:32:09;10.10;99.90
5059;DHT22;2548;52.050;11.036;2023-05-07T06:34:39;10.10;99.90
5059;DHT22;2548;52.050;11.036;2023-05-07T06:37:08;10.20;99.90
5059;DHT22;2548;52.050;11.036;2023-05-07T06:39:48;10.20;99.90
5059;DHT22;2548;52.050;11.036;2023-05-07T06:42:16;10.20;99.90
5059;DHT22;2548;52.050;11.036;2023-05-07T06:44:46;10.20;99.90
5059;DHT22;2548;52.050;11.036;2023-05-07T06:47:16;10.20;99.90
5059;DHT22;2548;52.050;11.036;2023-05-07T06:49:47;10.30;99.90
5059;DHT22;2548;52.050;11.036;2023-05-07T06:52:18;10.30;99.90
5059;DHT22;2548;52.050;11.036;2023-05-07T06:54:47;10.30;99.90
5059;DHT22;2548;52.050;11.036;2023-05-07T06:57:17;10.30;99.90
5059;DHT22;2548;52.050;11.036;2023-05-07T06:59:44;10.20;99.90
5059;DHT22;2548;52.050;11.036;2023-05-07T07:02:12;10.20;99.90
5059;DHT22;2548;52.050;11.036;2023-05-07T07:04:39;10.20;99.90
5059;DHT22;2548;52.050;11.036;2023-05-07T07:07:10;10.20;99.90
5059;DHT22;2548;52.050;11.036;2023-05-07T07:09:40;10.20;99.90
5059;DHT22;2548;52.050;11.036;2023-05-07T07:12:09;10.20;99.90
5059;DHT22;2548;52.050;11.036;2023-05-07T07:14:40;10.10;99.90
5059;DHT22;2548;52.050;11.036;2023-05-07T07:17:07;10.10;99.90
5059;DHT22;2548;52.050;11.036;2023-05-07T07:19:35;10.10;99.90
5059;DHT22;2548;52.050;11.036;2023-05-07T07:22:04;10.10;99.90
5059;DHT22;2548;52.050;11.036;2023-05-07T07:24:32;10.10;99.90
5059;DHT22;2548;52.050;11.036;2023-05-07T07:27:04;10.10;99.90
5059;DHT22;2548;52.050;11.036;2023-05-07T07:29:34;10.10;99.90
5059;DHT22;2548;52.050;11.036;2023-05-07T07:32:01;10.10;99.90
5059;DHT22;2548;52.050;11.036;2023-05-07T07:34:29;10.00;99.90
5059;DHT22;2548;52.050;11.036;2023-05-07T07:36:57;10.00;99.90
5059;DHT22;2548;52.050;11.036;2023-05-07T07:39:25;10.00;99.90
5059;DHT22;2548;52.050;11.036;2023-05-07T07:41:55;10.00;99.90
5059;DHT22;2548;52.050;11.036;2023-05-07T07:44:25;10.10;99.90
5059;DHT22;2548;52.050;11.036;2023-05-07T07:46:57;10.20;99.90
5059;DHT22;2548;52.050;11.036;2023-05-07T07:49:26;10.30;99.90
5059;DHT22;2548;52.050;11.036;2023-05-07T07:51:55;10.40;99.90
5059;DHT22;2548;52.050;11.036;2023-05-07T07:54:25;10.40;99.90
5059;DHT22;2548;52.050;11.036;2023-05-07T07:56:53;10.50;99.90
5059;DHT22;2548;52.050;11.036;2023-05-07T07:59:21;10.60;99.90
5059;DHT22;2548;52.050;11.036;2023-05-07T08:01:51;10.70;99.90
5059;DHT22;2548;52.050;11.036;2023-05-07T08:04:22;10.80;99.90
5059;DHT22;2548;52.050;11.036;2023-05-07T08:06:50;10.90;99.90
5059;DHT22;2548;52.050;11.036;2023-05-07T08:09:17;10.90;99.90
5059;DHT22;2548;52.050;11.036;2023-05-07T08:11:46;11.00;99.90
5059;DHT22;2548;52.050;11.036;2023-05-07T08:14:14;11.00;99.90
5059;DHT22;2548;52.050;11.036;2023-05-07T08:16:43;10.90;99.90
5059;DHT22;2548;52.050;11.036;2023-05-07T08:19:12;10.90;99.90
5059;DHT22;2548;52.050;11.036;2023-05-07T08:21:39;10.90;99.90
5059;DHT22;2548;52.050;11.036;2023-05-07T08:24:09;10.90;99.90
5059;DHT22;2548;52.050;11.036;2023-05-07T08:26:36;11.10;99.90
5059;DHT22;2548;52.050;11.036;2023-05-07T08:29:06;11.20;99.90
5059;DHT22;2548;52.050;11.036;2023-05-07T08:31:33;11.20;99.90
5059;DHT22;2548;52.050;11.036;2023-05-07T08:34:01;11.20;99.90
5059;DHT22;2548;52.050;11.036;2023-05-07T08:36:29;11.20;99.90
5059;DHT22;2548;52.050;11.036;2023-05-07T08:38:57;11.20;99.90
5059;DHT22;2548;52.050;11.036;2023-05-07T08:41:25;11.30;99.90
5059;DHT22;2548;52.050;11.036;2023-05-07T08:43:57;11.30;99.90
5059;DHT22;2548;52.050;11.036;2023-05-07T08:46:25;11.30;99.90
5059;DHT22;2548;52.050;11.036;2023-05-07T08:48:55;11.30;99.90
5059;DHT22;2548;52.050;11.036;2023-05-07T08:51:23;11.20;99.90
5059;DHT22;2548;52.050;11.036;2023-05-07T08:53:53;11.30;99.90
5059;DHT22;2548;52.050;11.036;2023-05-07T08:56:28;11.30;99.90
5059;DHT22;2548;52.050;11.036;2023-05-07T08:58:56;11.30;99.90
5059;DHT22;2548;52.050;11.036;2023-05-07T09:01:26;11.30;99.90
5059;DHT22;2548;52.050;11.036;2023-05-07T09:03:55;11.40;99.90
5059;DHT22;2548;52.050;11.036;2023-05-07T09:06:23;11.50;99.90
5059;DHT22;2548;52.050;11.036;2023-05-07T09:08:53;11.60;99.90
5059;DHT22;2548;52.050;11.036;2023-05-07T09:11:24;11.70;99.90
5059;DHT22;2548;52.050;11.036;2023-05-07T09:13:54;11.70;99.90
5059;DHT22;2548;52.050;11.036;2023-05-07T09:16:25;11.70;99.90
5059;DHT22;2548;52.050;11.036;2023-05-07T09:18:54;11.70;99.90
5059;DHT22;2548;52.050;11.036;2023-05-07T09:21:22;11.70;99.90
5059;DHT22;2548;52.050;11.036;2023-05-07T09:23:54;11.70;99.90
5059;DHT22;2548;52.050;11.036;2023-05-07T09:26:27;11.80;99.90
5059;DHT22;2548;52.050;11.036;2023-05-07T09:28:55;11.80;99.90
5059;DHT22;2548;52.050;11.036;2023-05-07T09:31:22;11.90;99.90
5059;DHT22;2548;52.050;11.036;2023-05-07T09:33:53;11.90;99.90
5059;DHT22;2548;52.050;11.036;2023-05-07T09:36:23;12.00;99.90
5059;DHT22;2548;52.050;11.036;2023-05-07T09:38:52;12.10;99.90
5059;DHT22;2548;52.050;11.036;2023-05-07T09:41:19;12.00;99.90
5059;DHT22;2548;52.050;11.036;2023-05-07T09:43:58;11.90;99.90
5059;DHT22;2548;52.050;11.036;2023-05-07T09:46:31;11.90;99.90
5059;DHT22;2548;52.050;11.036;2023-05-07T09:49:07;11.90;99.90
5059;DHT22;2548;52.050;11.036;2023-05-07T09:51:41;11.90;99.90
5059;DHT22;2548;52.050;11.036;2023-05-07T09:54:12;11.90;99.90
5059;DHT22;2548;52.050;11.036;2023-05-07T09:56:43;11.80;99.90
5059;DHT22;2548;52.050;11.036;2023-05-07T09:59:13;11.90;99.90
5059;DHT22;2548;52.050;11.036;2023-05-07T10:01:43;11.90;99.90
5059;DHT22;2548;52.050;11.036;2023-05-07T10:04:11;12.00;99.90
5059;DHT22;2548;52.050;11.036;2023-05-07T10:06:41;11.90;99.90
5059;DHT22;2548;52.050;11.036;2023-05-07T10:09:11;12.00;99.90
5059;DHT22;2548;52.050;11.036;2023-05-07T10:11:40;11.90;99.90
5059;DHT22;2548;52.050;11.036;2023-05-07T10:14:08;11.90;99.90
5059;DHT22;2548;52.050;11.036;2023-05-07T10:16:37;11.90;99.90
5059;DHT22;2548;52.050;11.036;2023-05-07T10:19:09;11.80;99.90
5059;DHT22;2548;52.050;11.036;2023-05-07T10:21:40;11.80;99.90
5059;DHT22;2548;52.050;11.036;2023-05-07T10:24:16;11.80;99.90
5059;DHT22;2548;52.050;11.036;2023-05-07T10:26:49;11.80;99.90
5059;DHT22;2548;52.050;11.036;2023-05-07T10:29:25;11.70;99.90
5059;DHT22;2548;52.050;11.036;2023-05-07T10:31:59;11.70;99.90
5059;DHT22;2548;52.050;11.036;2023-05-07T10:34:39;11.70;99.90
5059;DHT22;2548;52.050;11.036;2023-05-07T10:37:08;11.70;99.90
5059;DHT22;2548;52.050;11.036;2023-05-07T10:39:38;11.70;99.90
5059;DHT22;2548;52.050;11.036;2023-05-07T10:42:09;11.90;99.90
5059;DHT22;2548;52.050;11.036;2023-05-07T10:44:39;12.00;99.90
5059;DHT22;2548;52.050;11.036;2023-05-07T10:47:13;12.10;99.90
5059;DHT22;2548;52.050;11.036;2023-05-07T10:50:19;12.20;99.90
5059;DHT22;2548;52.050;11.036;2023-05-07T10:53:23;12.30;99.90
5059;DHT22;2548;52.050;11.036;2023-05-07T10:56:27;12.30;99.90
5059;DHT22;2548;52.050;11.036;2023-05-07T10:59:30;12.40;99.90
5059;DHT22;2548;52.050;11.036;2023-05-07T11:02:05;12.30;99.90
5059;DHT22;2548;52.050;11.036;2023-05-07T11:05:19;12.40;99.90
5059;DHT22;2548;52.050;11.036;2023-05-07T11:07:54;12.40;99.90
5059;DHT22;2548;52.050;11.036;2023-05-07T11:10:47;12.50;99.90
5059;DHT22;2548;52.050;11.036;2023-05-07T11:13:44;12.40;99.90
5059;DHT22;2548;52.050;11.036;2023-05-07T11:16:20;12.40;99.90
5059;DHT22;2548;52.050;11.036;2023-05-07T11:18:54;12.40;99.90
5059;DHT22;2548;52.050;11.036;2023-05-07T11:21:33;12.50;99.90
5059;DHT22;2548;52.050;11.036;2023-05-07T11:24:09;12.50;99.90
5059;DHT22;2548;52.050;11.036;2023-05-07T11:26:49;12.40;99.90
5059;DHT22;2548;52.050;11.036;2023-05-07T11:29:21;12.40;99.90
5059;DHT22;2548;52.050;11.036;2023-05-07T11:31:54;12.40;99.90
5059;DHT22;2548;52.050;11.036;2023-05-07T11:34:26;12.30;99.90
5059;DHT22;2548;52.050;11.036;2023-05-07T11:36:58;12.40;99.90
5059;DHT22;2548;52.050;11.036;2023-05-07T11:39:41;12.40;99.90
5059;DHT22;2548;52.050;11.036;2023-05-07T11:42:25;12.40;99.90
5059;DHT22;2548;52.050;11.036;2023-05-07T11:44:54;12.40;99.90
5059;DHT22;2548;52.050;11.036;2023-05-07T11:47:22;12.40;99.90
5059;DHT22;2548;52.050;11.036;2023-05-07T11:49:50;12.40;99.90
5059;DHT22;2548;52.050;11.036;2023-05-07T11:52:19;12.50;99.90
5059;DHT22;2548;52.050;11.036;2023-05-07T11:54:49;12.50;99.90
5059;DHT22;2548;52.050;11.036;2023-05-07T11:57:16;12.50;99.90
5059;DHT22;2548;52.050;11.036;2023-05-07T11:59:44;12.60;99.90
5059;DHT22;2548;52.050;11.036;2023-05-07T12:02:15;12.50;99.90
5059;DHT22;2548;52.050;11.036;2023-05-07T12:04:44;12.50;99.90
5059;DHT22;2548;52.050;11.036;2023-05-07T12:07:12;12.40;99.90
5059;DHT22;2548;52.050;11.036;2023-05-07T12:09:40;12.40;99.90
5059;DHT22;2548;52.050;11.036;2023-05-07T12:12:08;12.50;99.90
5059;DHT22;2548;52.050;11.036;2023-05-07T12:14:37;12.50;99.90
5059;DHT22;2548;52.050;11.036;2023-05-07T12:17:05;12.50;99.90
5059;DHT22;2548;52.050;11.036;2023-05-07T12:19:35;12.50;99.90
5059;DHT22;2548;52.050;11.036;2023-05-07T12:22:05;12.60;99.90
5059;DHT22;2548;52.050;11.036;2023-05-07T12:24:43;12.70;99.90
5059;DHT22;2548;52.050;11.036;2023-05-07T12:27:11;12.70;99.90
5059;DHT22;2548;52.050;11.036;2023-05-07T12:29:38;12.80;99.90
5059;DHT22;2548;52.050;11.036;2023-05-07T12:32:07;12.70;99.90
5059;DHT22;2548;52.050;11.036;2023-05-07T12:34:41;12.70;99.90
5059;DHT22;2548;52.050;11.036;2023-05-07T12:37:08;12.60;99.90
5059;DHT22;2548;52.050;11.036;2023-05-07T12:39:36;12.60;99.90
5059;DHT22;2548;52.050;11.036;2023-05-07T12:42:03;12.60;99.90
5059;DHT22;2548;52.050;11.036;2023-05-07T12:44:32;12.60;99.90
5059;DHT22;2548;52.050;11.036;2023-05-07T12:47:01;12.60;99.90
5059;DHT22;2548;52.050;11.036;2023-05-07T12:49:29;12.70;99.90
5059;DHT22;2548;52.050;11.036;2023-05-07T12:51:58;12.80;99.90
5059;DHT22;2548;52.050;11.036;2023-05-07T12:54:29;12.90;99.90
5059;DHT22;2548;52.050;11.036;2023-05-07T12:57:01;13.00;99.90
5059;DHT22;2548;52.050;11.036;2023-05-07T12:59:33;13.00;99.90
5059;DHT22;2548;52.050;11.036;2023-05-07T13:02:01;13.10;99.90
5059;DHT22;2548;52.050;11.036;2023-05-07T13:04:29;13.20;99.90
5059;DHT22;2548;52.050;11.036;2023-05-07T13:06:58;13.30;99.90
5059;DHT22;2548;52.050;11.036;2023-05-07T13:09:25;13.30;99.90
5059;DHT22;2548;52.050;11.036;2023-05-07T13:11:55;13.40;99.90
5059;DHT22;2548;52.050;11.036;2023-05-07T13:14:22;13.40;99.90
5059;DHT22;2548;52.050;11.036;2023-05-07T13:16:50;13.30;99.90
5059;DHT22;2548;52.050;11.036;2023-05-07T13:19:17;13.40;99.90
5059;DHT22;2548;52.050;11.036;2023-05-07T13:21:45;13.30;99.90
5059;DHT22;2548;52.050;11.036;2023-05-07T13:24:13;13.30;99.90
5059;DHT22;2548;52.050;11.036;2023-05-07T13:26:41;13.30;99.90
5059;DHT22;2548;52.050;11.036;2023-05-07T13:29:08;13.40;99.90
5059;DHT22;2548;52.050;11.036;2023-05-07T13:31:36;13.40;99.90
5059;DHT22;2548;52.050;11.036;2023-05-07T13:34:03;13.40;99.90
5059;DHT22;2548;52.050;11.036;2023-05-07T13:36:30;13.40;99.90
5059;DHT22;2548;52.050;11.036;2023-05-07T13:39:01;13.40;99.90
5059;DHT22;2548;52.050;11.036;2023-05-07T13:41:30;13.30;99.90
5059;DHT22;2548;52.050;11.036;2023-05-07T13:43:57;13.20;99.90
5059;DHT22;2548;52.050;11.036;2023-05-07T13:46:25;13.30;99.90
5059;DHT22;2548;52.050;11.036;2023-05-07T13:48:52;13.20;99.90
5059;DHT22;2548;52.050;11.036;2023-05-07T13:51:20;13.20;99.90
5059;DHT22;2548;52.050;11.036;2023-05-07T13:53:47;13.20;99.90
5059;DHT22;2548;52.050;11.036;2023-05-07T13:56:15;13.20;99.90
5059;DHT22;2548;52.050;11.036;2023-05-07T13:58:43;13.20;99.90
5059;DHT22;2548;52.050;11.036;2023-05-07T14:01:11;13.40;99.90
5059;DHT22;2548;52.050;11.036;2023-05-07T14:03:38;13.50;99.90
5059;DHT22;2548;52.050;11.036;2023-05-07T14:06:06;13.60;99.90
5059;DHT22;2548;52.050;11.036;2023-05-07T14:08:33;13.60;99.90
5059;DHT22;2548;52.050;11.036;2023-05-07T14:11:00;13.70;99.90
5059;DHT22;2548;52.050;11.036;2023-05-07T14:13:28;13.70;99.90
5059;DHT22;2548;52.050;11.036;2023-05-07T14:15:58;13.70;99.90
5059;DHT22;2548;52.050;11.036;2023-05-07T14:18:25;13.70;99.90
5059;DHT22;2548;52.050;11.036;2023-05-07T14:20:54;13.70;99.90
5059;DHT22;2548;52.050;11.036;2023-05-07T14:23:22;13.80;99.90
5059;DHT22;2548;52.050;11.036;2023-05-07T14:25:52;13.80;99.90
5059;DHT22;2548;52.050;11.036;2023-05-07T14:28:20;13.90;99.90
5059;DHT22;2548;52.050;11.036;2023-05-07T14:30:47;13.90;99.90
5059;DHT22;2548;52.050;11.036;2023-05-07T14:33:17;13.90;99.90
5059;DHT22;2548;52.050;11.036;2023-05-07T14:35:45;13.80;99.90
5059;DHT22;2548;52.050;11.036;2023-05-07T14:38:14;13.70;99.90
5059;DHT22;2548;52.050;11.036;2023-05-07T14:40:42;13.70;99.90
5059;DHT22;2548;52.050;11.036;2023-05-07T14:43:09;13.60;99.90
5059;DHT22;2548;52.050;11.036;2023-05-07T14:45:37;13.60;99.90
5059;DHT22;2548;52.050;11.036;2023-05-07T14:48:04;13.50;99.90
5059;DHT22;2548;52.050;11.036;2023-05-07T14:50:33;13.50;99.90
5059;DHT22;2548;52.050;11.036;2023-05-07T14:53:00;13.50;99.90
5059;DHT22;2548;52.050;11.036;2023-05-07T14:55:28;13.50;99.90
5059;DHT22;2548;52.050;11.036;2023-05-07T14:57:55;13.50;99.90
5059;DHT22;2548;52.050;11.036;2023-05-07T15:00:23;13.50;99.90
5059;DHT22;2548;52.050;11.036;2023-05-07T15:02:51;13.40;99.90
5059;DHT22;2548;52.050;11.036;2023-05-07T15:05:18;13.40;99.90
5059;DHT22;2548;52.050;11.036;2023-05-07T15:07:47;13.40;99.90
5059;DHT22;2548;52.050;11.036;2023-05-07T15:10:15;13.30;99.90
5059;DHT22;2548;52.050;11.036;2023-05-07T15:12:42;13.30;99.90
5059;DHT22;2548;52.050;11.036;2023-05-07T15:15:10;13.20;99.90
5059;DHT22;2548;52.050;11.036;2023-05-07T15:17:38;13.20;99.90
5059;DHT22;2548;52.050;11.036;2023-05-07T15:20:06;13.30;99.90
5059;DHT22;2548;52.050;11.036;2023-05-07T15:22:34;13.30;99.90
5059;DHT22;2548;52.050;11.036;2023-05-07T15:25:04;13.30;99.90
5059;DHT22;2548;52.050;11.036;2023-05-07T15:27:32;13.30;99.90
5059;DHT22;2548;52.050;11.036;2023-05-07T15:29:59;13.30;99.90
5059;DHT22;2548;52.050;11.036;2023-05-07T15:32:27;13.30;99.90
5059;DHT22;2548;52.050;11.036;2023-05-07T15:34:54;13.30;99.90
5059;DHT22;2548;52.050;11.036;2023-05-07T15:37:22;13.30;99.90
5059;DHT22;2548;52.050;11.036;2023-05-07T15:39:49;13.40;99.90
5059;DHT22;2548;52.050;11.036;2023-05-07T15:42:18;13.40;99.90
5059;DHT22;2548;52.050;11.036;2023-05-07T15:44:46;13.40;99.90
5059;DHT22;2548;52.050;11.036;2023-05-07T15:47:14;13.40;99.90
5059;DHT22;2548;52.050;11.036;2023-05-07T15:49:42;13.40;99.90
5059;DHT22;2548;52.050;11.036;2023-05-07T15:52:09;13.40;99.90
5059;DHT22;2548;52.050;11.036;2023-05-07T15:54:39;13.30;99.90
5059;DHT22;2548;52.050;11.036;2023-05-07T15:57:07;13.30;99.90
5059;DHT22;2548;52.050;11.036;2023-05-07T15:59:36;13.30;99.90
5059;DHT22;2548;52.050;11.036;2023-05-07T16:02:04;13.20;99.90
5059;DHT22;2548;52.050;11.036;2023-05-07T16:04:31;13.20;99.90
5059;DHT22;2548;52.050;11.036;2023-05-07T16:06:58;13.20;99.90